createdAt,value
2018-11-27T00:00:30.710Z,91.30
2018-11-27T00:03:00.274Z,91.30
2018-11-27T00:05:29.496Z,91.30
2018-11-27T00:07:58.269Z,91.30
2018-11-27T00:10:26.883Z,91.30
2018-11-27T00:12:55.386Z,91.40
2018-11-27T00:15:24.017Z,91.50
2018-11-27T00:17:52.596Z,91.50
2018-11-27T00:20:21.242Z,91.60
2018-11-27T00:22:49.870Z,91.60
2018-11-27T00:26:22.190Z,91.60
2018-11-27T00:28:50.704Z,91.60
2018-11-27T00:31:19.207Z,91.70
2018-11-27T00:33:47.811Z,91.70
2018-11-27T00:36:16.336Z,91.80
2018-11-27T00:38:45.096Z,91.90
2018-11-27T00:41:13.657Z,92.00
2018-11-27T00:43:42.173Z,92.00
2018-11-27T00:46:10.869Z,92.00
2018-11-27T00:48:39.439Z,92.10
2018-11-27T00:51:08.037Z,92.10
2018-11-27T00:53:36.620Z,92.10
2018-11-27T00:56:06.069Z,92.10
2018-11-27T00:58:34.679Z,92.10
2018-11-27T01:01:03.534Z,92.10
2018-11-27T01:03:32.151Z,92.50
2018-11-27T01:06:00.815Z,92.10
2018-11-27T01:08:29.389Z,92.20
2018-11-27T01:10:57.914Z,92.30
2018-11-27T01:13:26.419Z,92.40
2018-11-27T01:15:55.105Z,92.40
2018-11-27T01:18:23.699Z,92.40
2018-11-27T01:20:52.240Z,92.50
2018-11-27T01:23:20.826Z,92.60
2018-11-27T01:25:49.690Z,92.60
2018-11-27T01:28:19.182Z,92.60
2018-11-27T01:30:47.710Z,92.70
2018-11-27T01:33:16.311Z,92.80
2018-11-27T01:35:45.082Z,92.70
2018-11-27T01:38:13.659Z,92.70
2018-11-27T01:40:42.220Z,92.70
2018-11-27T01:43:10.800Z,92.70
2018-11-27T01:45:39.436Z,92.80
2018-11-27T01:48:07.989Z,93.00
2018-11-27T01:50:36.521Z,92.80
2018-11-27T01:53:05.405Z,92.90
2018-11-27T01:55:34.058Z,93.00
2018-11-27T01:58:02.598Z,93.20
2018-11-27T02:00:31.217Z,93.00
2018-11-27T02:03:01.094Z,93.00
2018-11-27T02:05:30.131Z,93.00
2018-11-27T02:07:58.745Z,93.00
2018-11-27T02:10:27.352Z,93.00
2018-11-27T02:13:01.019Z,92.90
2018-11-27T02:15:28.846Z,93.00
2018-11-27T02:17:57.537Z,93.00
2018-11-27T02:20:26.223Z,93.00
2018-11-27T02:22:54.804Z,92.90
2018-11-27T02:25:27.821Z,93.00
2018-11-27T02:27:56.612Z,92.90
2018-11-27T02:30:26.323Z,93.00
2018-11-27T02:32:54.937Z,92.90
2018-11-27T02:35:24.718Z,92.90
2018-11-27T02:37:54.296Z,92.90
2018-11-27T02:40:22.960Z,92.90
2018-11-27T02:42:51.566Z,93.00
2018-11-27T02:45:21.989Z,93.00
2018-11-27T02:47:51.394Z,93.00
2018-11-27T02:50:20.896Z,93.00
2018-11-27T02:52:49.457Z,93.10
2018-11-27T02:55:19.196Z,93.00
2018-11-27T02:57:47.805Z,93.30
2018-11-27T03:00:18.183Z,93.00
2018-11-27T03:02:46.890Z,92.90
2018-11-27T03:05:21.178Z,92.70
2018-11-27T03:07:49.805Z,92.80
2018-11-27T03:10:18.406Z,92.80
2018-11-27T03:12:47.010Z,92.70
2018-11-27T03:15:17.657Z,92.60
2018-11-27T03:17:46.426Z,92.70
2018-11-27T03:20:15.966Z,92.70
2018-11-27T03:22:44.545Z,92.60
2018-11-27T03:25:14.234Z,92.50
2018-11-27T03:27:43.035Z,92.60
2018-11-27T03:30:19.375Z,92.70
2018-11-27T03:32:48.028Z,92.70
2018-11-27T03:35:18.387Z,92.60
2018-11-27T03:37:47.591Z,92.50
2018-11-27T03:40:18.994Z,92.50
2018-11-27T03:42:47.666Z,92.50
2018-11-27T03:45:16.799Z,92.60
2018-11-27T03:47:45.572Z,92.60
2018-11-27T03:50:18.158Z,92.70
2018-11-27T03:52:47.338Z,92.80
2018-11-27T03:55:16.026Z,92.60
2018-11-27T03:57:44.659Z,92.60
2018-11-27T04:00:19.491Z,92.70
2018-11-27T04:02:49.432Z,92.70
2018-11-27T04:05:18.121Z,92.60
2018-11-27T04:07:46.698Z,92.70
2018-11-27T04:10:17.618Z,92.70
2018-11-27T04:12:46.363Z,92.70
2018-11-27T04:17:54.477Z,92.80
2018-11-27T04:20:23.042Z,92.90
2018-11-27T04:22:51.620Z,92.90
2018-11-27T04:25:20.244Z,92.90
2018-11-27T04:27:48.939Z,92.90
2018-11-27T04:30:19.246Z,92.90
2018-11-27T04:32:47.824Z,92.90
2018-11-27T04:35:17.506Z,92.60
2018-11-27T04:37:47.347Z,92.60
2018-11-27T04:40:16.942Z,92.50
2018-11-27T04:42:45.514Z,92.60
2018-11-27T04:45:18.652Z,92.70
2018-11-27T04:47:47.220Z,92.60
2018-11-27T04:50:16.686Z,92.90
2018-11-27T04:52:45.430Z,92.60
2018-11-27T04:55:15.733Z,92.60
2018-11-27T04:57:45.086Z,93.00
2018-11-27T05:00:19.524Z,92.70
2018-11-27T05:02:48.176Z,92.70
2018-11-27T05:05:17.047Z,92.70
2018-11-27T05:07:45.932Z,92.70
2018-11-27T05:10:15.700Z,92.60
2018-11-27T05:12:44.536Z,92.90
2018-11-27T05:15:14.446Z,92.70
2018-11-27T05:17:47.966Z,92.70
2018-11-27T05:20:12.716Z,92.60
2018-11-27T05:22:41.281Z,92.70
2018-11-27T05:25:13.724Z,92.60
2018-11-27T05:27:43.626Z,92.60
2018-11-27T05:30:16.098Z,92.60
2018-11-27T05:32:44.874Z,92.60
2018-11-27T05:35:14.683Z,92.50
2018-11-27T05:37:44.649Z,92.60
2018-11-27T05:40:17.353Z,92.50
2018-11-27T05:42:46.404Z,92.60
2018-11-27T05:45:18.213Z,92.50
2018-11-27T05:47:47.620Z,92.60
2018-11-27T05:50:17.145Z,92.50
2018-11-27T05:52:52.134Z,92.50
2018-11-27T05:55:20.660Z,92.50
2018-11-27T05:57:50.764Z,92.50
2018-11-27T06:00:21.508Z,92.60
2018-11-27T06:02:52.024Z,92.70
2018-11-27T06:05:21.462Z,92.70
2018-11-27T06:07:50.153Z,92.90
2018-11-27T06:10:19.737Z,92.90
2018-11-27T06:12:48.300Z,92.90
2018-11-27T06:15:19.915Z,92.90
2018-11-27T06:17:52.666Z,92.90
2018-11-27T06:20:22.182Z,92.90
2018-11-27T06:22:51.135Z,92.90
2018-11-27T06:25:20.864Z,92.70
2018-11-27T06:27:51.299Z,92.80
2018-11-27T06:30:22.171Z,92.80
2018-11-27T06:32:51.005Z,92.80
2018-11-27T06:35:22.852Z,92.70
2018-11-27T06:37:51.578Z,92.80
2018-11-27T06:40:21.428Z,92.80
2018-11-27T06:42:50.856Z,93.10
2018-11-27T06:45:20.337Z,92.70
2018-11-27T06:47:51.127Z,92.70
2018-11-27T06:50:20.784Z,93.10
2018-11-27T06:52:50.471Z,92.80
2018-11-27T06:55:20.260Z,92.80
2018-11-27T06:57:48.860Z,92.80
2018-11-27T07:00:20.520Z,92.90
2018-11-27T07:02:49.157Z,92.90
2018-11-27T07:05:17.874Z,92.90
2018-11-27T07:07:46.530Z,92.90
2018-11-27T07:10:20.401Z,92.90
2018-11-27T07:12:50.655Z,92.90
2018-11-27T07:15:20.837Z,93.20
2018-11-27T07:17:49.705Z,92.90
2018-11-27T07:20:18.414Z,92.80
2018-11-27T07:22:46.939Z,92.80
2018-11-27T07:25:16.166Z,92.90
2018-11-27T07:27:46.945Z,93.00
2018-11-27T07:30:20.329Z,93.00
2018-11-27T07:32:49.083Z,93.10
2018-11-27T07:35:20.417Z,93.00
2018-11-27T07:37:49.675Z,93.10
2018-11-27T07:40:20.014Z,93.20
2018-11-27T07:42:50.050Z,93.30
2018-11-27T07:45:19.990Z,93.30
2018-11-27T07:47:48.651Z,93.20
2018-11-27T07:50:17.707Z,93.40
2018-11-27T07:52:46.520Z,93.20
2018-11-27T07:55:17.237Z,93.20
2018-11-27T07:57:46.028Z,93.20
2018-11-27T08:00:18.909Z,93.20
2018-11-27T08:02:48.679Z,93.20
2018-11-27T08:05:19.794Z,93.20
2018-11-27T08:07:51.834Z,93.20
2018-11-27T08:10:21.813Z,93.20
2018-11-27T08:12:52.874Z,93.20
2018-11-27T08:15:23.329Z,93.20
2018-11-27T08:17:52.250Z,93.20
2018-11-27T08:20:25.103Z,93.10
2018-11-27T08:22:54.047Z,92.90
2018-11-27T08:25:23.303Z,92.80
2018-11-27T08:27:52.083Z,92.80
2018-11-27T08:30:21.605Z,92.70
2018-11-27T08:32:50.450Z,92.70
2018-11-27T08:35:20.296Z,92.70
2018-11-27T08:37:50.095Z,92.70
2018-11-27T08:40:19.910Z,92.70
2018-11-27T08:42:48.666Z,92.70
2018-11-27T08:45:20.081Z,92.60
2018-11-27T08:47:49.585Z,92.60
2018-11-27T08:50:20.588Z,92.40
2018-11-27T08:52:50.790Z,92.40
2018-11-27T08:55:22.956Z,92.40
2018-11-27T08:57:51.700Z,92.40
2018-11-27T09:00:21.683Z,92.50
2018-11-27T09:02:50.241Z,92.40
2018-11-27T09:05:19.018Z,92.40
2018-11-27T09:07:48.013Z,92.30
2018-11-27T09:10:20.958Z,92.30
2018-11-27T09:12:49.606Z,92.20
2018-11-27T09:15:20.093Z,92.20
2018-11-27T09:17:51.441Z,92.20
2018-11-27T09:20:20.961Z,92.00
2018-11-27T09:22:48.719Z,91.90
2018-11-27T09:25:18.366Z,92.00
2018-11-27T09:27:47.077Z,92.00
2018-11-27T09:30:21.045Z,91.80
2018-11-27T09:32:49.655Z,91.50
2018-11-27T09:35:18.281Z,91.70
2018-11-27T09:37:46.845Z,91.60
2018-11-27T09:40:16.836Z,91.70
2018-11-27T09:42:45.486Z,91.80
2018-11-27T09:45:19.363Z,91.80
2018-11-27T09:47:50.550Z,91.80
2018-11-27T09:50:19.160Z,91.70
2018-11-27T09:52:47.738Z,91.60
2018-11-27T09:55:19.467Z,91.60
2018-11-27T09:57:48.394Z,91.50
2018-11-27T10:00:18.204Z,91.50
2018-11-27T10:02:46.982Z,91.50
2018-11-27T10:05:15.901Z,91.30
2018-11-27T10:07:44.680Z,91.30
2018-11-27T10:10:14.530Z,91.30
2018-11-27T10:12:43.087Z,91.30
2018-11-27T10:15:15.022Z,91.20
2018-11-27T10:17:44.023Z,91.10
2018-11-27T10:20:15.287Z,90.80
2018-11-27T10:22:43.975Z,90.90
2018-11-27T10:25:12.628Z,90.80
2018-11-27T10:27:41.522Z,90.90
2018-11-27T10:30:26.319Z,90.90
2018-11-27T10:32:56.037Z,90.90
2018-11-27T10:35:25.746Z,90.90
2018-11-27T10:37:54.450Z,91.00
2018-11-27T10:40:23.200Z,90.80
2018-11-27T10:42:53.236Z,90.80
2018-11-27T10:45:22.930Z,90.60
2018-11-27T10:47:53.634Z,90.60
2018-11-27T10:50:22.426Z,90.50
2018-11-27T10:52:52.463Z,90.50
2018-11-27T10:55:21.710Z,90.40
2018-11-27T10:57:50.405Z,90.30
2018-11-27T11:00:29.705Z,90.20
2018-11-27T11:03:04.103Z,90.20
2018-11-27T11:05:33.823Z,90.30
2018-11-27T11:08:02.611Z,90.30
2018-11-27T11:10:38.061Z,90.30
2018-11-27T11:13:06.684Z,90.30
2018-11-27T11:15:35.296Z,90.20
2018-11-27T11:18:04.019Z,90.30
2018-11-27T11:20:32.656Z,90.30
2018-11-27T11:23:01.252Z,90.30
2018-11-27T11:25:29.907Z,90.30
2018-11-27T11:27:59.165Z,90.20
2018-11-27T11:30:27.744Z,90.00
2018-11-27T11:32:56.950Z,90.00
2018-11-27T11:35:25.613Z,89.90
2018-11-27T11:37:54.156Z,90.00
2018-11-27T11:40:24.194Z,90.00
2018-11-27T11:42:54.016Z,90.00
2018-11-27T11:45:22.692Z,90.00
2018-11-27T11:47:51.315Z,90.00
2018-11-27T11:50:21.853Z,90.00
2018-11-27T11:53:24.621Z,89.90
2018-11-27T11:55:53.380Z,89.70
2018-11-27T11:58:21.964Z,89.60
2018-11-27T12:00:53.861Z,89.50
2018-11-27T12:03:22.703Z,89.20
2018-11-27T12:05:51.367Z,88.90
2018-11-27T12:08:20.049Z,89.00
2018-11-27T12:10:48.745Z,89.10
2018-11-27T12:13:17.318Z,89.10
2018-11-27T12:15:46.091Z,89.20
2018-11-27T12:18:14.924Z,89.00
2018-11-27T12:20:44.414Z,89.10
2018-11-27T12:23:13.127Z,89.60
2018-11-27T12:25:41.946Z,89.60
2018-11-27T12:28:14.619Z,89.60
2018-11-27T12:30:39.606Z,89.30
2018-11-27T12:33:08.235Z,89.40
2018-11-27T12:35:36.906Z,89.40
2018-11-27T12:38:05.796Z,89.50
2018-11-27T12:40:34.446Z,89.70
2018-11-27T12:43:03.048Z,89.90
2018-11-27T12:45:32.585Z,89.80
2018-11-27T12:48:02.535Z,90.00
2018-11-27T12:50:47.363Z,90.00
2018-11-27T12:53:17.914Z,90.00
2018-11-27T12:55:47.777Z,90.00
2018-11-27T12:58:16.540Z,90.00
2018-11-27T13:00:45.382Z,90.10
2018-11-27T13:03:13.999Z,90.10
2018-11-27T13:05:44.018Z,90.10
2018-11-27T13:08:18.174Z,90.30
2018-11-27T13:10:46.851Z,90.50
2018-11-27T13:13:16.155Z,90.00
2018-11-27T13:15:46.273Z,90.00
2018-11-27T13:18:14.908Z,90.00
2018-11-27T13:20:44.233Z,89.70
2018-11-27T13:23:12.909Z,89.60
2018-11-27T13:25:42.312Z,89.50
2018-11-27T13:28:12.250Z,89.50
2018-11-27T13:30:53.378Z,89.70
2018-11-27T13:33:24.672Z,89.90
2018-11-27T13:35:53.237Z,89.90
2018-11-27T13:38:21.795Z,90.00
2018-11-27T13:40:51.455Z,89.70
2018-11-27T13:43:26.377Z,89.60
2018-11-27T13:45:55.869Z,89.40
2018-11-27T13:48:24.460Z,89.70
2018-11-27T13:50:53.160Z,89.60
2018-11-27T13:53:21.953Z,90.00
2018-11-27T13:55:50.650Z,89.20
2018-11-27T13:58:19.370Z,89.20
2018-11-27T14:00:48.055Z,89.30
2018-11-27T14:03:16.698Z,89.20
2018-11-27T14:05:45.389Z,89.40
2018-11-27T14:08:13.988Z,89.50
2018-11-27T14:10:42.622Z,89.50
2018-11-27T14:13:11.205Z,89.60
2018-11-27T14:15:39.913Z,89.50
2018-11-27T14:18:08.719Z,89.40
2018-11-27T14:20:37.365Z,89.70
2018-11-27T14:23:06.786Z,89.90
2018-11-27T14:25:35.487Z,89.70
2018-11-27T14:28:04.233Z,89.60
2018-11-27T14:30:32.835Z,89.80
2018-11-27T14:33:01.470Z,89.60
2018-11-27T14:35:30.215Z,89.70
2018-11-27T14:37:58.809Z,89.70
2018-11-27T14:40:28.108Z,90.00
2018-11-27T14:42:56.717Z,90.00
2018-11-27T14:45:26.447Z,90.40
2018-11-27T14:47:58.835Z,90.10
2018-11-27T14:50:27.384Z,90.30
2018-11-27T14:52:56.022Z,90.50
2018-11-27T14:55:28.059Z,90.80
2018-11-27T14:57:56.638Z,91.00
2018-11-27T15:00:26.830Z,91.00
2018-11-27T15:02:55.610Z,91.10
2018-11-27T15:05:32.184Z,91.10
2018-11-27T15:08:01.076Z,91.10
2018-11-27T15:10:29.795Z,91.20
2018-11-27T15:12:59.031Z,91.30
2018-11-27T15:15:27.741Z,91.20
2018-11-27T15:17:56.408Z,91.20
2018-11-27T15:20:25.023Z,91.20
2018-11-27T15:22:53.783Z,91.20
2018-11-27T15:25:22.544Z,91.00
2018-11-27T15:27:51.250Z,91.00
2018-11-27T15:30:30.562Z,91.00
2018-11-27T15:33:00.400Z,90.80
2018-11-27T15:35:29.202Z,91.00
2018-11-27T15:37:57.948Z,91.10
2018-11-27T15:40:28.700Z,91.40
2018-11-27T15:42:57.470Z,91.10
2018-11-27T15:45:34.565Z,91.20
2018-11-27T15:48:04.289Z,91.10
2018-11-27T15:50:32.859Z,91.20
2018-11-27T15:53:01.594Z,91.30
2018-11-27T15:55:31.653Z,91.40
2018-11-27T15:58:06.514Z,91.70
2018-11-27T16:00:35.174Z,91.90
2018-11-27T16:03:03.863Z,92.10
2018-11-27T16:05:33.300Z,92.10
2018-11-27T16:08:02.697Z,92.20
2018-11-27T16:10:32.367Z,92.10
2018-11-27T16:13:01.154Z,92.00
2018-11-27T16:16:33.782Z,92.00
2018-11-27T16:19:03.844Z,91.90
2018-11-27T16:21:32.853Z,91.70
2018-11-27T16:24:01.573Z,91.80
2018-11-27T16:26:30.237Z,91.70
2018-11-27T16:28:59.652Z,91.80
2018-11-27T16:31:28.473Z,91.80
2018-11-27T16:33:57.251Z,91.70
2018-11-27T16:36:26.115Z,91.70
2018-11-27T16:38:55.635Z,91.90
2018-11-27T16:41:24.478Z,91.70
2018-11-27T16:43:54.134Z,91.70
2018-11-27T16:46:23.027Z,91.80
2018-11-27T16:48:51.970Z,91.90
2018-11-27T16:51:20.845Z,91.80
2018-11-27T16:53:50.003Z,91.90
2018-11-27T16:56:18.857Z,91.70
2018-11-27T16:58:49.396Z,91.50
2018-11-27T17:01:18.997Z,92.00
2018-11-27T17:03:47.619Z,92.00
2018-11-27T17:06:16.402Z,92.10
2018-11-27T17:08:45.158Z,92.10
2018-11-27T17:11:13.776Z,92.30
2018-11-27T17:13:42.492Z,92.20
2018-11-27T17:16:11.283Z,92.00
2018-11-27T17:25:32.472Z,92.30
2018-11-27T17:28:05.269Z,91.90
2018-11-27T17:30:42.800Z,92.00
2018-11-27T17:33:15.599Z,92.10
2018-11-27T17:35:44.642Z,92.40
2018-11-27T17:38:13.380Z,92.50
2018-11-27T17:40:42.254Z,92.60
2018-11-27T17:43:11.092Z,92.70
2018-11-27T17:45:40.009Z,92.80
2018-11-27T17:48:09.467Z,93.00
2018-11-27T17:50:38.420Z,93.10
2018-11-27T17:53:07.709Z,93.20
2018-11-27T17:55:36.735Z,93.30
2018-11-27T17:58:06.405Z,93.30
2018-11-27T18:00:35.297Z,93.30
2018-11-27T18:03:06.263Z,93.30
2018-11-27T18:05:35.260Z,93.20
2018-11-27T18:08:04.016Z,93.20
2018-11-27T18:10:32.794Z,93.20
2018-11-27T18:13:01.570Z,93.10
2018-11-27T18:15:30.345Z,93.00
2018-11-27T18:17:59.089Z,93.20
2018-11-27T18:20:27.949Z,93.10
2018-11-27T18:22:57.345Z,93.10
2018-11-27T18:25:26.077Z,93.10
2018-11-27T18:27:54.809Z,93.20
2018-11-27T18:30:24.126Z,93.10
2018-11-27T18:32:53.125Z,93.20
2018-11-27T18:35:23.136Z,93.60
2018-11-27T18:37:52.326Z,93.70
2018-11-27T18:40:21.509Z,93.80
2018-11-27T18:42:50.539Z,93.80
2018-11-27T18:45:21.701Z,93.60
2018-11-27T18:47:50.566Z,93.80
2018-11-27T18:50:19.330Z,93.70
2018-11-27T18:52:47.990Z,93.80
2018-11-27T18:55:17.099Z,94.20
2018-11-27T18:57:46.712Z,93.90
2018-11-27T19:00:16.748Z,93.90
2018-11-27T19:02:45.602Z,93.90
2018-11-27T19:05:14.447Z,93.90
2018-11-27T19:07:43.320Z,93.80
2018-11-27T19:10:13.308Z,93.90
2018-11-27T19:12:42.099Z,93.80
2018-11-27T19:15:16.229Z,93.80
2018-11-27T19:17:46.131Z,93.70
2018-11-27T19:20:14.815Z,93.80
2018-11-27T19:22:43.584Z,93.90
2018-11-27T19:25:15.413Z,94.00
2018-11-27T19:27:44.153Z,94.00
2018-11-27T19:30:19.106Z,94.20
2018-11-27T19:32:47.877Z,94.30
2018-11-27T19:35:24.987Z,94.40
2018-11-27T19:37:50.463Z,94.40
2018-11-27T19:40:19.916Z,94.50
2018-11-27T19:42:48.567Z,94.40
2018-11-27T19:45:20.545Z,94.40
2018-11-27T19:47:49.261Z,94.40
2018-11-27T19:50:18.148Z,94.50
2018-11-27T19:52:48.570Z,94.60
2018-11-27T19:55:18.625Z,94.50
2018-11-27T19:57:47.718Z,94.50
2018-11-27T20:00:20.470Z,94.40
2018-11-27T20:02:49.357Z,94.40
2018-11-27T20:05:20.245Z,94.60
2018-11-27T20:07:48.960Z,94.70
2018-11-27T20:10:17.567Z,94.80
2018-11-27T20:12:46.235Z,94.90
2018-11-27T20:15:16.784Z,94.90
2018-11-27T20:17:45.876Z,95.00
2018-11-27T20:20:15.465Z,95.00
2018-11-27T20:22:44.136Z,95.00
2018-11-27T20:25:14.251Z,95.00
2018-11-27T20:27:43.086Z,95.00
2018-11-27T20:30:13.723Z,95.00
2018-11-27T20:32:43.540Z,95.00
2018-11-27T20:35:13.455Z,95.10
2018-11-27T20:37:42.317Z,95.00
2018-11-27T20:40:13.540Z,95.10
2018-11-27T20:42:42.167Z,95.10
2018-11-27T20:45:19.637Z,95.20
2018-11-27T20:47:47.553Z,95.10
2018-11-27T20:50:20.126Z,95.20
2018-11-27T20:52:49.189Z,95.20
2018-11-27T20:55:18.389Z,95.20
2018-11-27T20:57:50.016Z,95.20
2018-11-27T21:00:21.548Z,95.30
2018-11-27T21:02:50.873Z,95.30
2018-11-27T21:05:19.510Z,95.30
2018-11-27T21:07:48.332Z,95.20
2018-11-27T21:10:17.337Z,95.30
2018-11-27T21:12:46.350Z,95.30
2018-11-27T21:15:17.685Z,95.20
2018-11-27T21:17:46.491Z,95.20
2018-11-27T21:20:16.113Z,95.20
2018-11-27T21:22:45.310Z,95.30
2018-11-27T21:25:22.800Z,95.30
2018-11-27T21:27:59.964Z,95.30
2018-11-27T21:30:28.818Z,95.20
2018-11-27T21:32:58.530Z,95.30
2018-11-27T21:35:27.348Z,95.30
2018-11-27T21:37:56.353Z,95.30
2018-11-27T21:40:25.158Z,95.10
2018-11-27T21:42:54.214Z,95.20
2018-11-27T21:45:25.458Z,95.20
2018-11-27T21:47:54.972Z,95.20
2018-11-27T21:50:29.178Z,95.10
2018-11-27T21:52:59.587Z,95.20
2018-11-27T21:55:28.630Z,95.30
2018-11-27T21:57:58.038Z,95.30
2018-11-27T22:00:28.106Z,95.20
2018-11-27T22:02:57.015Z,95.30
2018-11-27T22:05:25.823Z,95.40
2018-11-27T22:07:56.210Z,95.40
2018-11-27T22:10:25.991Z,95.40
2018-11-27T22:12:56.013Z,95.30
2018-11-27T22:15:39.714Z,95.40
2018-11-27T22:18:09.659Z,95.40
2018-11-27T22:20:39.338Z,95.20
2018-11-27T22:23:08.935Z,95.20
2018-11-27T22:25:37.917Z,95.20
2018-11-27T22:28:07.755Z,95.10
2018-11-27T22:30:37.405Z,95.10
2018-11-27T22:33:08.155Z,95.00
2018-11-27T22:35:37.075Z,95.00
2018-11-27T22:38:06.813Z,94.90
2018-11-27T22:40:35.610Z,94.90
2018-11-27T22:43:04.332Z,94.90
2018-11-27T22:45:34.701Z,94.80
2018-11-27T22:48:03.416Z,94.70
2018-11-27T22:50:32.154Z,94.60
2018-11-27T22:53:00.759Z,94.50
2018-11-27T22:55:29.600Z,94.50
2018-11-27T22:57:58.159Z,94.50
2018-11-27T23:00:33.558Z,94.50
2018-11-27T23:03:02.356Z,94.40
2018-11-27T23:05:30.986Z,94.40
2018-11-27T23:08:00.198Z,94.40
2018-11-27T23:10:32.353Z,94.20
2018-11-27T23:13:01.031Z,94.20
2018-11-27T23:15:29.718Z,94.40
2018-11-27T23:17:58.357Z,93.90
2018-11-27T23:20:26.996Z,93.90
2018-11-27T23:22:55.603Z,93.90
2018-11-27T23:25:24.339Z,93.90
2018-11-27T23:27:53.300Z,93.80
2018-11-27T23:30:24.169Z,93.90
2018-11-27T23:32:52.986Z,93.80
2018-11-27T23:35:21.703Z,93.70
2018-11-27T23:37:50.295Z,93.70
2018-11-27T23:40:20.674Z,93.70
2018-11-27T23:42:49.346Z,93.60
2018-11-27T23:45:20.559Z,93.60
2018-11-27T23:47:49.172Z,93.50
2018-11-27T23:50:18.744Z,93.50
2018-11-27T23:52:47.452Z,93.50
2018-11-27T23:55:16.873Z,93.40
2018-11-27T23:57:45.882Z,93.50
